Time;durP1;ratioP1;P1;durP2;ratioP2;P2;SDS_P1;SDS_P2;PMS_P1;PMS_P2;Temp;Humidity;BMP_temperature;BMP_pressure;BME280_temperature;BME280_humidity;BME280_pressure;Samples;Min_cycle;Max_cycle;Signal;HPM_P1;HPM_P2
2022/03/31 00:00:17;;;;;;;2.38;1.60;;;;;;;2.65;85.08;100347.03;5095559;28;20034;-74
2022/03/31 00:02:42;;;;;;;6.82;2.00;;;;;;;2.79;86.54;100342.34;5076294;28;20502;-73
2022/03/31 00:05:08;;;;;;;2.67;1.70;;;;;;;2.67;87.17;100350.22;5075660;28;20153;-74
2022/03/31 00:07:34;;;;;;;4.13;1.80;;;;;;;2.85;86.38;100354.53;5077025;28;20107;-74
2022/03/31 00:09:59;;;;;;;3.58;1.80;;;;;;;2.76;85.97;100345.19;5077055;28;20020;-74
2022/03/31 00:12:25;;;;;;;4.35;1.83;;;;;;;2.87;86.14;100347.53;5076990;28;20023;-74
2022/03/31 00:14:51;;;;;;;3.35;1.85;;;;;;;2.75;85.34;100339.31;5095118;28;20564;-74
2022/03/31 00:17:16;;;;;;;3.15;1.90;;;;;;;2.72;87.08;100342.94;5077013;28;20024;-75
2022/03/31 00:19:41;;;;;;;6.45;1.92;;;;;;;2.72;87.55;100331.94;5095217;28;20111;-74
2022/03/31 00:22:29;;;;;;;7.53;2.10;;;;;;;2.89;86.49;100336.22;5095141;28;20097;-73
2022/03/31 00:24:54;;;;;;;3.05;1.80;;;;;;;2.67;85.15;100337.47;5076705;28;20058;-74
2022/03/31 00:27:19;;;;;;;2.85;1.98;;;;;;;2.52;86.00;100325.38;5094925;28;20051;-74
2022/03/31 00:29:45;;;;;;;2.97;2.03;;;;;;;2.59;85.74;100341.69;5094822;28;20015;-74
2022/03/31 00:32:10;;;;;;;4.07;2.00;;;;;;;2.65;85.84;100341.13;5094725;28;20031;-75
2022/03/31 00:34:35;;;;;;;3.15;2.35;;;;;;;2.71;86.20;100343.91;5076466;28;20031;-74
2022/03/31 00:37:01;;;;;;;4.65;2.10;;;;;;;2.33;86.25;100347.53;5094754;28;20046;-74
2022/03/31 00:39:31;;;;;;;3.30;2.00;;;;;;;2.41;87.25;100342.50;5094543;28;20024;-74
2022/03/31 00:41:58;;;;;;;3.08;2.15;;;;;;;2.49;86.70;100350.22;5094637;28;20024;-75
2022/03/31 00:44:24;;;;;;;3.97;2.10;;;;;;;2.28;87.26;100343.81;5076364;28;20027;-75
2022/03/31 00:46:51;;;;;;;3.22;1.88;;;;;;;2.27;88.04;100342.97;5094509;28;20401;-74
2022/03/31 00:49:19;;;;;;;3.30;1.92;;;;;;;2.05;87.14;100341.66;5094452;28;20043;-75
2022/03/31 00:51:45;;;;;;;3.92;2.30;;;;;;;1.94;88.11;100349.47;5094305;28;20072;-75
2022/03/31 00:54:12;;;;;;;3.80;2.00;;;;;;;1.99;88.29;100342.22;5076218;28;20051;-75
2022/03/31 00:56:38;;;;;;;3.35;1.90;;;;;;;1.82;87.77;100336.13;5094289;28;20019;-74
2022/03/31 00:59:05;;;;;;;4.45;2.40;;;;;;;1.93;88.58;100337.69;5075866;28;20115;-74
2022/03/31 01:01:32;;;;;;;5.25;3.33;;;;;;;2.12;88.09;100332.47;5076091;28;20013;-74
2022/03/31 01:04:00;;;;;;;5.03;3.40;;;;;;;2.22;87.37;100330.69;5075959;28;20576;-74
2022/03/31 01:06:26;;;;;;;3.10;2.08;;;;;;;2.10;86.93;100321.63;5094152;28;20490;-74
2022/03/31 01:08:51;;;;;;;5.00;2.00;;;;;;;2.12;87.23;100332.47;5094098;28;20023;-73
2022/03/31 01:11:17;;;;;;;2.97;1.88;;;;;;;1.84;87.96;100323.22;5075843;28;20020;-75
2022/03/31 01:13:42;;;;;;;2.88;1.73;;;;;;;1.86;88.93;100314.50;5075737;28;20024;-74
2022/03/31 01:16:08;;;;;;;4.63;1.90;;;;;;;2.10;88.95;100315.72;5093902;28;20364;-75
2022/03/31 01:18:34;;;;;;;2.85;1.80;;;;;;;1.96;87.91;100319.56;5093398;28;20087;-75
2022/03/31 01:21:01;;;;;;;2.92;1.90;;;;;;;2.05;88.29;100315.38;5075536;28;20081;-74
2022/03/31 01:23:27;;;;;;;3.10;1.60;;;;;;;1.86;88.13;100316.25;5093867;28;20383;-74
2022/03/31 01:25:52;;;;;;;4.78;2.75;;;;;;;1.75;88.89;100312.13;5093806;28;20035;-74
2022/03/31 01:28:18;;;;;;;3.40;1.85;;;;;;;1.71;88.45;100309.06;5075520;28;20477;-74
2022/03/31 01:30:44;;;;;;;2.63;1.80;;;;;;;1.85;88.79;100310.34;5093651;28;20054;-74
2022/03/31 01:33:10;;;;;;;3.75;1.92;;;;;;;1.89;89.20;100321.06;5075593;28;20483;-74
2022/03/31 01:35:36;;;;;;;2.58;1.85;;;;;;;1.92;88.23;100303.72;5093653;28;20020;-74
2022/03/31 01:38:01;;;;;;;3.40;2.10;;;;;;;2.00;88.37;100305.59;5093679;28;20485;-75
2022/03/31 01:40:27;;;;;;;2.90;1.83;;;;;;;1.82;89.59;100305.53;5093347;28;20020;-75
2022/03/31 01:42:52;;;;;;;2.53;1.52;;;;;;;2.03;89.32;100292.56;5093551;28;20065;-74
2022/03/31 01:45:18;;;;;;;2.95;1.50;;;;;;;2.08;88.71;100290.38;5093432;28;20020;-74
2022/03/31 01:47:44;;;;;;;2.03;1.58;;;;;;;1.98;89.13;100292.97;5075395;28;20520;-75
2022/03/31 01:50:11;;;;;;;1.52;1.33;;;;;;;1.90;89.74;100297.16;5093104;28;20407;-75
2022/03/31 01:52:38;;;;;;;4.00;1.90;;;;;;;1.97;89.31;100293.13;5093325;28;20030;-75
2022/03/31 01:55:04;;;;;;;2.85;1.80;;;;;;;2.16;89.82;100297.31;5093583;28;20055;-73
2022/03/31 01:57:29;;;;;;;4.63;1.80;;;;;;;2.11;89.73;100296.94;5093180;28;20057;-74
2022/03/31 01:59:54;;;;;;;3.42;1.67;;;;;;;2.05;89.80;100285.56;5093262;28;20035;-74
2022/03/31 02:02:20;;;;;;;3.20;1.90;;;;;;;1.99;89.91;100276.75;5075024;28;20054;-74
2022/03/31 02:04:46;;;;;;;5.05;1.88;;;;;;;2.12;89.44;100273.84;5093151;28;20024;-74
2022/03/31 02:07:11;;;;;;;3.30;1.60;;;;;;;2.11;89.15;100263.81;5075086;28;20073;-73
2022/03/31 02:09:37;;;;;;;6.32;1.90;;;;;;;1.98;89.84;100264.94;5075050;28;20023;-75
2022/03/31 02:12:04;;;;;;;3.00;1.80;;;;;;;1.89;89.13;100255.59;5074962;28;20028;-74
2022/03/31 02:14:30;;;;;;;3.13;1.55;;;;;;;1.94;89.65;100258.53;5074999;28;20059;-74
2022/03/31 02:16:55;;;;;;;3.70;1.40;;;;;;;1.91;90.42;100256.28;5093222;28;20457;-74
2022/03/31 02:19:21;;;;;;;3.13;1.60;;;;;;;2.18;90.38;100252.06;5093023;28;20030;-74
2022/03/31 02:21:47;;;;;;;2.58;1.55;;;;;;;2.21;90.17;100250.03;5093075;28;20024;-74
2022/03/31 02:24:13;;;;;;;3.28;1.50;;;;;;;2.16;88.79;100243.78;5074900;28;20500;-75
2022/03/31 02:26:38;;;;;;;5.30;1.80;;;;;;;1.91;89.52;100248.63;5074806;28;20016;-73
2022/03/31 02:29:04;;;;;;;3.35;1.70;;;;;;;1.91;88.75;100255.47;5093006;28;20437;-74
2022/03/31 02:31:31;;;;;;;4.43;1.98;;;;;;;1.96;89.39;100251.56;5096968;28;20020;-74
2022/03/31 02:33:57;;;;;;;5.97;2.00;;;;;;;1.84;90.78;100247.59;5078795;28;20127;-74
2022/03/31 02:36:23;;;;;;;3.47;1.92;;;;;;;1.89;90.81;100242.88;5097288;28;20394;-74
2022/03/31 02:38:49;;;;;;;4.30;1.83;;;;;;;1.58;89.79;100247.44;5096944;28;20024;-75
2022/03/31 02:41:14;;;;;;;4.97;1.73;;;;;;;1.51;90.99;100251.53;5096827;28;20028;-76
2022/03/31 02:43:40;;;;;;;3.78;2.15;;;;;;;1.66;91.77;100242.47;5096950;28;20028;-75
2022/03/31 02:46:05;;;;;;;3.35;1.90;;;;;;;1.90;91.17;100236.84;5096865;28;20039;-75
2022/03/31 02:48:31;;;;;;;3.13;2.00;;;;;;;1.77;90.83;100236.38;5078530;28;20027;-75
2022/03/31 02:50:56;;;;;;;6.13;2.35;;;;;;;1.72;91.15;100218.97;5078302;28;20130;-75
2022/03/31 02:56:05;;;;;;;;;;;;;;;2.02;90.59;100228.03;5097202;28;20054;-75
2022/03/31 02:58:30;;;;;;;4.68;1.90;;;;;;;2.01;89.56;100229.00;5078291;28;19908;-75
2022/03/31 03:00:56;;;;;;;4.55;2.17;;;;;;;1.82;89.65;100230.88;5096501;28;20024;-75
2022/03/31 03:03:22;;;;;;;3.90;2.15;;;;;;;1.62;90.58;100213.13;5096557;28;20025;-73
2022/03/31 03:05:48;;;;;;;4.30;2.30;;;;;;;1.80;90.88;100225.91;5096493;28;20136;-73
2022/03/31 03:08:14;;;;;;;4.50;1.92;;;;;;;1.73;90.66;100212.94;5096368;28;20020;-74
2022/03/31 03:10:40;;;;;;;6.63;2.40;;;;;;;1.66;91.22;100219.53;5096320;28;20024;-74
2022/03/31 03:13:06;;;;;;;4.53;2.38;;;;;;;1.84;91.44;100223.84;5078133;28;20077;-74
2022/03/31 03:15:31;;;;;;;4.03;2.80;;;;;;;1.88;90.73;100225.97;5078114;28;20023;-76
2022/03/31 03:17:57;;;;;;;4.82;2.78;;;;;;;1.80;90.23;100225.91;5078154;28;20495;-76
2022/03/31 03:20:24;;;;;;;3.55;2.45;;;;;;;1.79;90.83;100222.56;5078013;28;20418;-75
2022/03/31 03:22:51;;;;;;;4.68;2.88;;;;;;;1.82;90.90;100216.38;5077956;28;20020;-75
2022/03/31 03:25:18;;;;;;;7.30;2.83;;;;;;;1.92;91.44;100218.84;5078044;28;20111;-75
2022/03/31 03:27:47;;;;;;;3.95;2.80;;;;;;;1.80;91.13;100221.59;5096255;28;20423;-75
2022/03/31 03:30:14;;;;;;;5.38;2.80;;;;;;;1.89;90.93;100227.56;5095939;28;20032;-75
2022/03/31 03:32:40;;;;;;;5.03;2.70;;;;;;;1.70;90.90;100222.63;5096187;28;20028;-74
2022/03/31 03:35:07;;;;;;;4.78;2.85;;;;;;;1.99;92.34;100207.16;5077863;28;20069;-74
2022/03/31 03:37:32;;;;;;;6.00;2.65;;;;;;;1.93;90.87;100207.72;5095769;28;20032;-74
2022/03/31 03:39:58;;;;;;;5.00;2.55;;;;;;;1.74;90.66;100206.88;5077535;28;20059;-74
2022/03/31 03:42:23;;;;;;;4.20;2.58;;;;;;;1.69;90.81;100196.31;5077452;28;20028;-75
2022/03/31 03:44:49;;;;;;;5.25;2.75;;;;;;;1.81;91.57;100189.28;5095655;28;20024;-73
2022/03/31 03:47:14;;;;;;;2.88;2.35;;;;;;;1.88;90.56;100194.59;5095740;28;20066;-74
2022/03/31 03:49:40;;;;;;;4.32;2.60;;;;;;;1.91;90.52;100196.88;5095707;28;20482;-75
2022/03/31 03:52:05;;;;;;;4.47;2.30;;;;;;;1.99;90.79;100197.75;5077375;28;20044;-76
2022/03/31 03:54:31;;;;;;;3.47;2.13;;;;;;;1.91;90.31;100201.97;5077469;28;20028;-74
2022/03/31 03:56:56;;;;;;;4.70;2.47;;;;;;;2.00;90.10;100209.53;5095561;28;20023;-74
2022/03/31 03:59:22;;;;;;;4.15;2.10;;;;;;;1.62;90.54;100199.59;5095388;28;20427;-75
2022/03/31 04:01:47;;;;;;;3.40;2.13;;;;;;;1.92;91.24;100203.56;5095380;28;20020;-75
2022/03/31 04:04:12;;;;;;;7.68;2.78;;;;;;;1.92;90.40;100193.38;5095410;28;20028;-74
2022/03/31 04:06:38;;;;;;;4.70;1.90;;;;;;;1.95;90.27;100193.88;5095292;28;20020;-76
2022/03/31 04:09:03;;;;;;;3.58;1.90;;;;;;;1.68;90.28;100199.81;5095166;28;20077;-75
2022/03/31 04:11:29;;;;;;;2.65;1.80;;;;;;;1.77;91.34;100195.59;5095232;28;20028;-74
2022/03/31 04:13:54;;;;;;;3.40;1.77;;;;;;;1.92;90.78;100191.59;5095096;28;20106;-75
2022/03/31 04:16:19;;;;;;;4.85;2.35;;;;;;;2.04;90.51;100194.75;5077041;28;20024;-74
2022/03/31 04:18:45;;;;;;;5.45;1.85;;;;;;;1.90;90.45;100190.97;5076881;28;20031;-74
2022/03/31 04:21:10;;;;;;;3.90;1.65;;;;;;;1.86;90.04;100169.25;5076863;28;20123;-75
2022/03/31 04:23:36;;;;;;;2.55;1.60;;;;;;;1.94;90.71;100178.75;5094938;28;20031;-74
2022/03/31 04:26:01;;;;;;;2.60;1.52;;;;;;;1.90;90.33;100173.13;5076864;28;20033;-74
2022/03/31 04:28:27;;;;;;;4.85;1.60;;;;;;;1.93;90.17;100172.06;5094834;28;20019;-74
2022/03/31 04:30:54;;;;;;;6.47;1.70;;;;;;;1.95;90.26;100170.13;5076660;28;20024;-74
2022/03/31 04:33:19;;;;;;;1.75;1.40;;;;;;;2.15;91.30;100175.88;5094826;28;20020;-75
2022/03/31 04:35:45;;;;;;;2.90;1.45;;;;;;;1.88;90.35;100181.88;5094914;28;20028;-74
2022/03/31 04:38:10;;;;;;;3.50;1.50;;;;;;;1.96;91.42;100177.66;5094662;28;20019;-74
2022/03/31 04:40:35;;;;;;;2.45;1.38;;;;;;;2.13;91.10;100196.44;5094449;28;20028;-74
2022/03/31 04:43:00;;;;;;;4.00;1.67;;;;;;;2.08;90.40;100188.44;5076457;28;20020;-74
2022/03/31 04:45:26;;;;;;;3.22;1.65;;;;;;;2.23;90.22;100192.06;5094687;28;20024;-75
2022/03/31 04:47:51;;;;;;;4.20;1.67;;;;;;;2.44;90.04;100198.59;5094497;28;20028;-74
2022/03/31 04:50:16;;;;;;;3.38;1.60;;;;;;;2.26;90.05;100193.50;5094261;28;20047;-74
2022/03/31 04:52:42;;;;;;;3.22;1.40;;;;;;;2.26;89.70;100190.97;5093927;28;20036;-73
2022/03/31 04:55:08;;;;;;;3.92;1.50;;;;;;;2.33;90.15;100196.25;5094220;28;20020;-74
2022/03/31 04:57:33;;;;;;;3.00;1.70;;;;;;;2.39;89.44;100195.69;5094467;28;20020;-74
2022/03/31 04:59:58;;;;;;;5.00;1.80;;;;;;;2.18;88.90;100193.44;5094113;28;20052;-74
2022/03/31 05:02:23;;;;;;;4.22;1.77;;;;;;;2.40;89.43;100197.28;5094256;28;20367;-74
2022/03/31 05:04:49;;;;;;;5.90;1.90;;;;;;;2.47;89.59;100186.34;5094059;28;20115;-75
2022/03/31 05:07:14;;;;;;;7.32;1.77;;;;;;;2.38;89.48;100183.88;5075912;28;20028;-75
2022/03/31 05:09:41;;;;;;;4.85;1.80;;;;;;;2.38;89.73;100188.97;5094036;28;20078;-75
2022/03/31 05:12:07;;;;;;;6.43;1.90;;;;;;;2.41;89.78;100183.56;5075818;28;20145;-75
2022/03/31 05:14:33;;;;;;;4.07;1.80;;;;;;;2.57;89.73;100182.91;5075603;28;20034;-72
2022/03/31 05:16:58;;;;;;;5.25;1.90;;;;;;;2.48;89.31;100190.50;5093858;28;20535;-74
2022/03/31 05:19:24;;;;;;;4.65;2.15;;;;;;;2.54;89.26;100190.84;5075476;28;20387;-75
2022/03/31 05:21:49;;;;;;;4.82;1.90;;;;;;;2.65;89.17;100190.63;5093674;28;20031;-74
2022/03/31 05:24:14;;;;;;;6.10;1.95;;;;;;;2.59;89.84;100197.13;5093682;28;20055;-74
2022/03/31 05:26:40;;;;;;;3.75;1.70;;;;;;;2.70;89.73;100198.59;5093695;28;20015;-75
2022/03/31 05:29:05;;;;;;;7.10;1.95;;;;;;;2.78;89.51;100197.84;5093684;28;20024;-75
2022/03/31 05:31:30;;;;;;;5.90;1.90;;;;;;;2.63;89.56;100197.59;5093547;28;20069;-74
2022/03/31 05:33:55;;;;;;;4.57;1.80;;;;;;;2.62;89.33;100201.91;5093390;28;20023;-74
2022/03/31 05:36:21;;;;;;;6.18;2.13;;;;;;;2.62;89.20;100199.38;5093438;28;20027;-74
2022/03/31 05:38:46;;;;;;;11.07;2.00;;;;;;;2.63;89.41;100197.59;5091977;28;20028;-74
2022/03/31 05:41:11;;;;;;;6.75;2.20;;;;;;;2.71;90.11;100190.00;5091537;28;20039;-74
2022/03/31 05:43:37;;;;;;;4.20;2.00;;;;;;;2.60;89.69;100183.41;5092212;28;20031;-75
2022/03/31 05:46:02;;;;;;;5.47;2.35;;;;;;;2.73;89.81;100193.19;5075134;28;20482;-74
2022/03/31 05:48:28;;;;;;;7.43;2.17;;;;;;;2.63;89.41;100183.09;5092984;28;20043;-74
2022/03/31 05:50:54;;;;;;;7.13;2.28;;;;;;;2.81;89.83;100189.91;5093123;28;20048;-75
2022/03/31 05:53:19;;;;;;;7.18;2.60;;;;;;;2.81;89.80;100185.59;5075410;28;20042;-74
2022/03/31 05:55:45;;;;;;;6.20;2.40;;;;;;;2.82;90.53;100179.56;5093243;28;20387;-75
2022/03/31 05:58:11;;;;;;;7.07;2.42;;;;;;;2.69;90.15;100177.41;5093140;28;20024;-74
2022/03/31 06:00:37;;;;;;;5.10;2.72;;;;;;;2.71;90.21;100182.34;5074743;28;20078;-73
2022/03/31 06:03:02;;;;;;;4.07;2.45;;;;;;;2.57;89.65;100175.25;5091851;28;20448;-74
2022/03/31 06:05:27;;;;;;;5.95;2.45;;;;;;;2.65;89.96;100177.88;5074907;28;20020;-74
2022/03/31 06:07:52;;;;;;;7.45;2.65;;;;;;;2.80;90.16;100173.00;5092858;28;20110;-75
2022/03/31 06:10:19;;;;;;;6.63;2.60;;;;;;;2.63;89.25;100179.75;5092148;28;20028;-74
2022/03/31 06:12:44;;;;;;;8.98;2.67;;;;;;;2.54;90.17;100181.44;5091408;28;20024;-74
2022/03/31 06:15:10;;;;;;;6.05;2.58;;;;;;;2.69;89.83;100176.59;5072748;28;20360;-74
2022/03/31 06:17:35;;;;;;;7.32;2.30;;;;;;;2.60;90.19;100183.41;5073429;28;20032;-74
2022/03/31 06:20:02;;;;;;;8.40;3.10;;;;;;;2.77;89.95;100175.84;5090160;28;20027;-73
2022/03/31 06:22:27;;;;;;;6.10;2.70;;;;;;;2.96;90.75;100178.16;5091223;28;20027;-73
2022/03/31 06:24:52;;;;;;;4.53;2.45;;;;;;;3.00;89.82;100183.78;5092491;28;20028;-75
2022/03/31 06:27:18;;;;;;;4.95;2.45;;;;;;;3.15;89.31;100182.25;5093011;28;20055;-76
2022/03/31 06:29:46;;;;;;;6.90;2.50;;;;;;;2.91;87.71;100178.66;5092767;28;20020;-74
2022/03/31 06:32:15;;;;;;;7.45;3.15;;;;;;;3.02;88.82;100171.66;5074704;28;20019;-74
2022/03/31 06:34:41;;;;;;;5.35;2.55;;;;;;;2.99;89.03;100171.97;5074713;28;20486;-75
2022/03/31 06:37:07;;;;;;;7.30;2.50;;;;;;;3.04;89.20;100168.00;5092910;28;20016;-74
2022/03/31 06:39:33;;;;;;;5.78;2.50;;;;;;;3.02;88.93;100164.81;5074729;28;20157;-76
2022/03/31 06:41:58;;;;;;;4.10;2.58;;;;;;;3.04;89.36;100164.66;5074675;28;20418;-74
2022/03/31 06:44:24;;;;;;;4.78;2.40;;;;;;;2.98;88.34;100171.16;5092956;28;20035;-74
2022/03/31 06:46:49;;;;;;;4.13;2.35;;;;;;;3.20;89.25;100158.84;5090936;28;20509;-72
2022/03/31 06:49:15;;;;;;;4.38;2.33;;;;;;;3.31;88.71;100159.34;5092715;28;20028;-74
2022/03/31 06:51:43;;;;;;;7.00;2.70;;;;;;;3.22;87.96;100167.13;5074390;28;20487;-75
2022/03/31 06:54:09;;;;;;;4.55;2.30;;;;;;;3.30;88.99;100155.19;5092566;28;20065;-74
2022/03/31 06:56:35;;;;;;;5.78;2.58;;;;;;;3.66;89.53;100165.19;5092650;28;20156;-75
2022/03/31 06:59:02;;;;;;;7.07;2.50;;;;;;;3.80;88.38;100159.47;5092804;28;20058;-75
2022/03/31 07:01:27;;;;;;;7.82;2.17;;;;;;;3.92;86.65;100161.72;5092502;28;20056;-74
2022/03/31 07:03:52;;;;;;;8.57;2.95;;;;;;;3.64;87.00;100156.88;5092271;28;20086;-75
2022/03/31 07:06:18;;;;;;;5.97;2.13;;;;;;;4.07;87.54;100158.34;5092883;28;20024;-74
2022/03/31 07:08:44;;;;;;;4.95;2.80;;;;;;;4.29;86.71;100156.94;5074404;28;20020;-73
2022/03/31 07:11:10;;;;;;;5.43;2.20;;;;;;;4.25;87.29;100153.06;5074112;28;20016;-73
2022/03/31 07:13:36;;;;;;;6.32;2.22;;;;;;;4.30;87.43;100153.41;5074160;28;20024;-73
2022/03/31 07:16:01;;;;;;;4.57;1.90;;;;;;;4.09;85.97;100152.31;5091756;28;20094;-73
2022/03/31 07:18:27;;;;;;;3.47;1.98;;;;;;;4.08;86.46;100161.72;5075967;28;20134;-74
2022/03/31 07:20:52;;;;;;;2.85;1.90;;;;;;;4.23;87.25;100147.34;5093896;28;20062;-73
2022/03/31 07:23:19;;;;;;;3.00;2.00;;;;;;;4.27;86.30;100150.38;5094209;28;20020;-74
2022/03/31 07:25:44;;;;;;;4.32;2.05;;;;;;;4.09;85.69;100147.97;5075685;28;20024;-73
2022/03/31 07:28:10;;;;;;;4.40;2.17;;;;;;;4.43;86.35;100150.38;5094981;28;20483;-73
2022/03/31 07:30:35;;;;;;;3.63;2.00;;;;;;;4.53;85.58;100145.84;5095624;28;20024;-73
2022/03/31 07:33:03;;;;;;;3.95;1.90;;;;;;;4.57;84.66;100142.97;5095964;28;20039;-74
2022/03/31 07:35:32;;;;;;;3.65;1.90;;;;;;;4.65;84.84;100138.63;5096301;28;20418;-73
2022/03/31 07:37:58;;;;;;;2.78;1.92;;;;;;;4.46;85.79;100133.88;5096025;28;20027;-73
2022/03/31 07:40:26;;;;;;;5.30;2.38;;;;;;;4.44;86.63;100128.13;5077748;28;20024;-73
2022/03/31 07:42:52;;;;;;;6.78;2.10;;;;;;;4.40;85.81;100130.22;5095945;28;20031;-74
2022/03/31 07:45:19;;;;;;;3.90;2.08;;;;;;;4.39;85.75;100136.28;5095589;28;20028;-73
2022/03/31 07:47:44;;;;;;;2.80;1.95;;;;;;;4.41;87.15;100133.56;5077539;28;20027;-74
2022/03/31 07:50:12;;;;;;;3.60;2.20;;;;;;;4.45;85.70;100127.16;5076619;28;20035;-73
2022/03/31 07:52:39;;;;;;;5.82;2.80;;;;;;;4.77;86.12;100138.28;5075370;28;20042;-73
2022/03/31 07:55:07;;;;;;;4.32;2.78;;;;;;;5.01;84.48;100122.06;5093923;28;20467;-74
2022/03/31 07:57:33;;;;;;;3.55;2.25;;;;;;;5.07;84.79;100127.31;5095458;28;20109;-74
2022/03/31 07:59:58;;;;;;;3.50;2.28;;;;;;;5.24;84.41;100122.13;5095091;28;20028;-73
2022/03/31 08:02:26;;;;;;;4.88;2.50;;;;;;;5.24;83.92;100110.09;5078554;28;20382;-74
2022/03/31 08:04:55;;;;;;;3.45;2.40;;;;;;;5.39;83.85;100123.78;5094814;28;20030;-72
2022/03/31 08:07:20;;;;;;;4.13;2.83;;;;;;;5.70;82.77;100117.81;5076565;28;20359;-74
2022/03/31 08:09:46;;;;;;;4.40;2.58;;;;;;;6.05;81.71;100116.47;5093453;28;20023;-74
2022/03/31 08:12:11;;;;;;;3.50;2.50;;;;;;;6.15;80.89;100121.34;5094205;28;20039;-74
2022/03/31 08:14:36;;;;;;;3.63;2.60;;;;;;;5.53;79.64;100111.22;5093518;28;20426;-73
2022/03/31 08:17:02;;;;;;;4.88;3.20;;;;;;;5.88;80.59;100117.53;5093367;28;20028;-74
2022/03/31 08:19:30;;;;;;;4.97;3.10;;;;;;;5.91;82.00;100112.06;5074823;28;20035;-73
2022/03/31 08:21:56;;;;;;;5.80;3.67;;;;;;;5.45;82.03;100122.31;5093301;28;20065;-73
2022/03/31 08:24:22;;;;;;;5.85;3.38;;;;;;;5.50;81.91;100124.38;5094027;28;20035;-74
2022/03/31 08:26:47;;;;;;;5.85;3.97;;;;;;;5.58;81.97;100124.28;5075807;28;20024;-74
2022/03/31 08:29:13;;;;;;;4.78;4.03;;;;;;;5.51;82.27;100123.41;5094130;28;20120;-74
2022/03/31 08:31:38;;;;;;;5.72;4.03;;;;;;;5.42;82.29;100128.56;5076575;28;20383;-75
2022/03/31 08:34:04;;;;;;;4.63;3.60;;;;;;;5.50;81.23;100125.16;5076634;28;20386;-67
2022/03/31 08:36:30;;;;;;;6.50;4.15;;;;;;;5.80;81.74;100123.50;5074616;28;20324;-69
2022/03/31 08:38:56;;;;;;;6.47;3.83;;;;;;;5.69;81.73;100129.03;5092356;28;20103;-68
2022/03/31 08:41:27;;;;;;;7.13;3.83;;;;;;;5.63;82.23;100124.59;5092968;28;20052;-68
2022/03/31 08:43:53;;;;;;;5.22;3.72;;;;;;;5.54;80.69;100126.41;5076037;28;20570;-68
2022/03/31 08:46:20;;;;;;;5.60;4.00;;;;;;;5.49;82.09;100117.63;5093718;28;20028;-68
2022/03/31 08:48:45;;;;;;;4.80;3.65;;;;;;;5.12;82.02;100127.59;5094446;28;20028;-68
2022/03/31 08:51:10;;;;;;;6.18;4.43;;;;;;;5.57;82.89;100110.69;5094243;28;20055;-66
2022/03/31 08:53:36;;;;;;;5.68;4.10;;;;;;;5.75;81.06;100110.41;5094541;28;20027;-67
2022/03/31 08:56:03;;;;;;;4.55;3.83;;;;;;;5.93;80.59;100114.44;5076070;28;20024;-68
2022/03/31 08:58:29;;;;;;;4.80;4.05;;;;;;;6.16;80.63;100114.44;5093817;28;20497;-67
2022/03/31 09:00:54;;;;;;;5.97;4.40;;;;;;;6.06;80.16;100117.25;5075525;28;20020;-68
2022/03/31 09:03:20;;;;;;;5.38;4.30;;;;;;;6.15;79.58;100117.97;5094200;28;20366;-68
2022/03/31 09:05:49;;;;;;;6.82;4.50;;;;;;;5.96;79.90;100121.84;5092736;28;20020;-69
2022/03/31 09:08:16;;;;;;;5.28;4.25;;;;;;;5.93;80.20;100114.44;5093142;28;20016;-68
2022/03/31 09:10:47;;;;;;;5.78;4.47;;;;;;;6.07;81.49;100117.09;5074883;28;20467;-67
2022/03/31 09:13:19;;;;;;;6.47;4.43;;;;;;;5.97;80.53;100120.84;5092260;28;20027;-67
2022/03/31 09:15:51;;;;;;;6.25;4.57;;;;;;;6.09;81.96;100125.38;5092769;28;20042;-69
2022/03/31 09:18:22;;;;;;;7.05;5.15;;;;;;;5.82;80.33;100124.13;5056977;28;20024;-68
2022/03/31 09:20:50;;;;;;;7.38;5.10;;;;;;;5.58;81.38;100117.44;5092122;28;20364;-69
2022/03/31 09:23:23;;;;;;;6.40;5.00;;;;;;;5.79;82.05;100124.47;5093248;28;20160;-67
2022/03/31 09:25:51;;;;;;;6.25;4.50;;;;;;;5.63;81.54;100115.13;5074051;28;20051;-68
2022/03/31 09:28:23;;;;;;;6.97;4.85;;;;;;;5.77;81.44;100121.28;5073566;28;20106;-68
2022/03/31 09:30:51;;;;;;;9.18;5.13;;;;;;;6.05;80.40;100123.34;5093001;28;20474;-67
2022/03/31 09:33:32;;;;;;;6.75;5.00;;;;;;;6.00;79.98;100128.19;5075258;28;20027;-69
2022/03/31 09:36:02;;;;;;;6.57;5.05;;;;;;;6.25;81.11;100126.22;5075365;28;20024;-68
2022/03/31 09:38:28;;;;;;;6.80;5.00;;;;;;;6.06;79.54;100125.72;5075036;28;20443;-68
2022/03/31 09:40:54;;;;;;;6.55;4.43;;;;;;;6.24;78.49;100124.63;5093358;28;20103;-68
2022/03/31 09:43:19;;;;;;;6.13;4.75;;;;;;;5.91;80.70;100127.44;5058679;28;20051;-68
2022/03/31 09:45:45;;;;;;;5.68;4.72;;;;;;;6.12;81.02;100129.38;5073029;28;20116;-67
2022/03/31 09:48:23;;;;;;;6.78;4.70;;;;;;;6.17;81.66;100126.31;5090782;28;20047;-69
2022/03/31 09:50:49;;;;;;;6.63;4.80;;;;;;;6.19;79.65;100120.03;5061816;28;20041;-69
2022/03/31 09:53:15;;;;;;;11.13;6.28;;;;;;;6.19;80.80;100125.16;5051513;28;20017;-68
2022/03/31 09:55:43;;;;;;;6.90;4.88;;;;;;;5.56;80.74;100098.84;5050561;28;20028;-69
2022/03/31 09:58:13;;;;;;;9.30;5.82;;;;;;;5.84;81.28;100111.94;5051981;28;20054;-68
2022/03/31 10:00:39;;;;;;;7.65;5.43;;;;;;;5.97;81.63;100113.16;5033656;28;20029;-68
2022/03/31 10:03:05;;;;;;;7.53;5.63;;;;;;;6.07;80.84;100111.97;5052504;28;20028;-69
2022/03/31 10:05:32;;;;;;;9.57;5.38;;;;;;;6.23;80.88;100110.22;5052959;28;20032;-68
2022/03/31 10:07:59;;;;;;;7.45;5.55;;;;;;;6.13;81.88;100120.72;5053076;28;20060;-69
2022/03/31 10:10:26;;;;;;;8.30;5.82;;;;;;;6.08;81.78;100115.31;5052017;28;20031;-67
2022/03/31 10:13:03;;;;;;;8.77;5.50;;;;;;;5.66;80.21;100114.78;5052057;28;20083;-69
2022/03/31 10:15:31;;;;;;;9.23;5.78;;;;;;;5.46;83.11;100112.84;5051685;28;20082;-70
2022/03/31 10:17:57;;;;;;;7.38;5.78;;;;;;;5.49;82.34;100118.41;5050913;28;20027;-69
2022/03/31 10:20:23;;;;;;;8.50;5.35;;;;;;;5.64;81.67;100118.50;5051879;28;20023;-67
2022/03/31 10:25:53;;;;;;;7.95;4.80;;;;;;;5.78;80.26;100116.94;5051234;28;20098;-68
2022/03/31 10:28:21;;;;;;;8.20;5.53;;;;;;;5.68;81.93;100124.88;5052072;28;20025;-68
2022/03/31 10:31:03;;;;;;;8.70;5.78;;;;;;;5.42;84.79;100117.53;5050348;28;20104;-75
2022/03/31 10:33:37;;;;;;;7.55;5.15;;;;;;;5.58;82.79;100117.44;5051288;28;20047;-68
2022/03/31 10:36:10;;;;;;;8.88;5.60;;;;;;;5.73;83.67;100116.69;5051301;28;20032;-69
2022/03/31 10:38:37;;;;;;;8.82;6.03;;;;;;;5.73;85.38;100120.03;5051439;28;20032;-68
2022/03/31 10:41:13;;;;;;;9.13;5.63;;;;;;;5.98;83.42;100117.31;5051138;28;20028;-69
2022/03/31 10:43:47;;;;;;;7.30;5.25;;;;;;;5.74;81.37;100111.38;5051246;28;20025;-68
2022/03/31 10:46:17;;;;;;;6.82;5.25;;;;;;;6.03;81.61;100115.03;5052987;28;20024;-67
2022/03/31 10:48:54;;;;;;;9.20;5.50;;;;;;;6.48;79.39;100110.78;5051722;28;20464;-69
2022/03/31 10:51:36;;;;;;;8.02;4.95;;;;;;;6.76;79.78;100105.78;5076490;28;20101;-68
2022/03/31 10:54:03;;;;;;;7.20;4.90;;;;;;;6.63;78.64;100091.03;5077415;28;20069;-67
2022/03/31 10:56:30;;;;;;;7.72;5.20;;;;;;;6.93;80.11;100098.69;5096594;28;20020;-69
2022/03/31 10:59:04;;;;;;;6.95;5.10;;;;;;;6.33;78.88;100090.25;5096539;28;20471;-67
2022/03/31 11:01:33;;;;;;;9.38;5.60;;;;;;;6.31;82.59;100095.53;5078434;28;20020;-68
2022/03/31 11:04:06;;;;;;;7.35;5.30;;;;;;;6.77;81.92;100110.78;5077508;28;20019;-68
2022/03/31 11:06:32;;;;;;;7.75;5.32;;;;;;;6.45;81.46;100106.78;5077260;28;20031;-68
2022/03/31 11:08:57;;;;;;;8.60;5.43;;;;;;;6.42;80.73;100094.31;5096478;28;20032;-68
2022/03/31 11:11:25;;;;;;;7.78;5.72;;;;;;;6.52;81.56;100096.59;5096425;28;20039;-68
2022/03/31 11:13:52;;;;;;;8.20;5.43;;;;;;;6.33;82.27;100093.59;5095446;28;20020;-68
2022/03/31 11:16:19;;;;;;;9.52;4.65;;;;;;;6.09;80.47;100101.50;5096187;28;20047;-69
2022/03/31 11:18:57;;;;;;;8.15;4.82;;;;;;;6.13;81.46;100100.22;5078088;28;20031;-69
2022/03/31 11:21:33;;;;;;;7.85;5.15;;;;;;;6.28;81.48;100090.75;5096084;28;20028;-69
2022/03/31 11:23:59;;;;;;;7.57;5.20;;;;;;;5.86;81.05;100098.94;5096178;28;20052;-67
2022/03/31 11:26:29;;;;;;;10.77;5.55;;;;;;;6.08;83.03;100089.66;5077877;28;20499;-67
2022/03/31 11:28:55;;;;;;;12.63;5.32;;;;;;;6.23;82.81;100095.59;5095293;28;20344;-69
2022/03/31 11:31:21;;;;;;;7.13;4.70;;;;;;;6.19;81.12;100089.25;5096299;28;20050;-67
2022/03/31 11:33:47;;;;;;;7.05;5.20;;;;;;;6.18;82.72;100084.28;5096296;28;20023;-68
2022/03/31 11:36:13;;;;;;;7.78;5.10;;;;;;;5.97;81.76;100084.94;5096163;28;20108;-67